Time;durP1;ratioP1;P1;durP2;ratioP2;P2;SDS_P1;SDS_P2;PMS_P1;PMS_P2;Temp;Humidity;BMP_temperature;BMP_pressure;BME280_temperature;BME280_humidity;BME280_pressure;Samples;Min_cycle;Max_cycle;Signal;HPM_P1;HPM_P2
2021/11/02 00:00:40;;;;;;;33.15;7.32;;;;;;;8.92;100.00;100204.47;5060487;28;20017;-71
2021/11/02 00:03:06;;;;;;;98.88;9.30;;;;;;;8.78;100.00;100199.63;5062213;28;20453;-74
2021/11/02 00:05:32;;;;;;;47.33;7.95;;;;;;;8.78;100.00;100196.19;5062397;28;20120;-70
2021/11/02 00:07:58;;;;;;;42.15;8.07;;;;;;;8.78;100.00;100183.34;5069276;28;20036;-72
2021/11/02 00:10:24;;;;;;;37.38;8.57;;;;;;;8.88;100.00;100183.75;5071712;28;20024;-75
2021/11/02 00:12:49;;;;;;;29.50;8.63;;;;;;;8.79;100.00;100170.50;5072015;28;20033;-73
2021/11/02 00:15:21;;;;;;;168.43;12.15;;;;;;;8.42;100.00;100103.03;5071716;28;20027;-76
2021/11/02 00:17:49;;;;;;;118.40;14.88;;;;;;;8.87;100.00;100171.72;5071711;28;20093;-72
2021/11/02 00:20:15;;;;;;;141.63;15.52;;;;;;;8.98;100.00;100179.81;5067746;28;20043;-75
2021/11/02 00:22:44;;;;;;;115.82;14.30;;;;;;;8.93;100.00;100177.91;5072054;28;20462;-72
2021/11/02 00:25:11;;;;;;;119.30;13.93;;;;;;;8.97;100.00;100167.78;5071776;28;20115;-71
2021/11/02 00:27:39;;;;;;;151.77;15.05;;;;;;;9.02;100.00;100171.41;5071747;28;20025;-72
2021/11/02 00:30:11;;;;;;;71.10;14.90;;;;;;;8.53;100.00;100082.00;5071498;28;20036;-69
2021/11/02 00:32:37;;;;;;;76.15;13.85;;;;;;;8.99;100.00;100180.72;5071572;28;20029;-71
2021/11/02 00:35:05;;;;;;;57.05;14.00;;;;;;;8.91;100.00;100172.72;5071606;28;20023;-73
2021/11/02 00:37:31;;;;;;;65.57;14.38;;;;;;;8.79;100.00;100152.50;5071616;28;20040;-71
2021/11/02 00:39:56;;;;;;;102.43;13.98;;;;;;;8.92;100.00;100171.84;5071667;28;20082;-73
2021/11/02 00:42:31;;;;;;;128.20;13.35;;;;;;;8.90;100.00;100163.22;5071086;28;20430;-74
2021/11/02 00:44:56;;;;;;;45.92;12.20;;;;;;;8.57;100.00;100122.47;5070930;28;20102;-68
2021/11/02 00:47:25;;;;;;;116.88;15.38;;;;;;;8.61;100.00;100144.06;5070715;28;20475;-71
2021/11/02 00:49:50;;;;;;;38.30;11.80;;;;;;;8.74;100.00;100160.03;5071357;28;20032;-71
2021/11/02 00:52:16;;;;;;;52.38;13.20;;;;;;;8.68;100.00;100159.78;5071081;28;20020;-71
2021/11/02 00:54:42;;;;;;;169.32;16.52;;;;;;;8.48;100.00;100104.97;5071294;28;20099;-69
2021/11/02 00:57:07;;;;;;;143.15;15.00;;;;;;;8.82;100.00;100154.31;5070900;28;20032;-69
2021/11/02 00:59:32;;;;;;;153.23;17.38;;;;;;;8.38;100.00;100061.66;5070611;28;20047;-71
2021/11/02 01:01:58;;;;;;;110.32;16.40;;;;;;;8.82;100.00;100150.06;5070725;28;20081;-71
2021/11/02 01:04:23;;;;;;;152.45;17.33;;;;;;;8.87;100.00;100142.50;5071321;28;20017;-71
2021/11/02 01:06:49;;;;;;;155.70;16.77;;;;;;;8.84;100.00;100145.81;5064407;28;20016;-66
2021/11/02 01:09:14;;;;;;;65.93;13.85;;;;;;;8.83;100.00;100135.47;5064118;28;20028;-70
2021/11/02 01:11:40;;;;;;;57.17;12.60;;;;;;;8.75;100.00;100127.47;5063971;28;20715;-66
2021/11/02 01:14:06;;;;;;;287.27;18.10;;;;;;;8.74;100.00;100131.72;5060956;28;20024;-66
2021/11/02 01:16:32;;;;;;;52.88;13.75;;;;;;;8.68;100.00;100130.63;5059540;28;20025;-69
2021/11/02 01:18:57;;;;;;;71.63;14.50;;;;;;;8.66;100.00;100128.00;5062856;28;20410;-68
2021/11/02 01:21:23;;;;;;;162.95;17.45;;;;;;;8.68;100.00;100107.44;5058343;28;20040;-70
2021/11/02 01:23:48;;;;;;;152.95;18.75;;;;;;;8.19;100.00;100039.50;5063297;28;20028;-69
2021/11/02 01:26:15;;;;;;;104.13;17.23;;;;;;;8.50;100.00;100110.16;5057774;28;20033;-67
2021/11/02 01:28:41;;;;;;;98.15;16.95;;;;;;;8.52;100.00;100114.59;5063574;28;20111;-68
2021/11/02 01:31:06;;;;;;;200.38;20.35;;;;;;;8.55;100.00;100114.69;5070580;28;20513;-67
2021/11/02 01:33:32;;;;;;;119.10;17.80;;;;;;;8.00;100.00;100022.44;5052458;28;20044;-68
2021/11/02 01:35:59;;;;;;;194.85;20.02;;;;;;;8.56;100.00;100101.00;5071276;28;20402;-72
2021/11/02 01:38:24;;;;;;;92.18;17.02;;;;;;;8.55;100.00;100099.25;5070885;28;20043;-67
2021/11/02 01:40:51;;;;;;;139.35;18.05;;;;;;;8.37;100.00;100070.19;5053127;28;20021;-68
2021/11/02 01:43:18;;;;;;;117.60;20.63;;;;;;;8.46;100.00;100070.63;5053242;28;20512;-66
2021/11/02 01:45:44;;;;;;;144.95;20.63;;;;;;;8.57;100.00;100097.63;5052643;28;20078;-67
2021/11/02 01:48:15;;;;;;;168.55;21.08;;;;;;;8.69;100.00;100106.63;5071075;28;20115;-67
2021/11/02 01:50:41;;;;;;;133.95;19.83;;;;;;;8.67;100.00;100105.69;5071045;28;20035;-66
2021/11/02 01:53:06;;;;;;;53.22;18.55;;;;;;;8.54;100.00;100094.06;5066069;28;20025;-68
2021/11/02 01:55:32;;;;;;;73.13;18.88;;;;;;;8.42;100.00;100086.69;5061902;28;20039;-68
2021/11/02 01:57:57;;;;;;;183.18;23.08;;;;;;;8.27;100.00;100068.97;5070215;28;20080;-72
2021/11/02 02:00:24;;;;;;;52.75;20.27;;;;;;;8.39;100.00;100084.88;5070785;28;20032;-68
2021/11/02 02:02:53;;;;;;;167.10;24.20;;;;;;;8.46;100.00;100093.75;5071019;28;20033;-70
2021/11/02 02:05:45;;;;;;;83.80;22.20;;;;;;;8.53;100.00;100094.88;5035284;28;20040;-69
2021/11/02 02:08:30;;;;;;;149.98;24.58;;;;;;;8.05;100.00;100020.94;5066582;28;20429;-68
2021/11/02 02:11:31;;;;;;;113.57;24.98;;;;;;;8.28;100.00;100087.84;5071014;28;20017;-70
2021/11/02 02:14:10;;;;;;;115.72;25.35;;;;;;;8.39;100.00;100086.59;4989179;28;20121;-68
2021/11/02 02:16:43;;;;;;;108.30;25.77;;;;;;;8.23;100.00;100072.22;4989159;28;20030;-66
2021/11/02 02:19:45;;;;;;;287.10;28.70;;;;;;;8.47;100.00;100092.91;4989039;28;20069;-68
2021/11/02 02:22:35;;;;;;;149.23;26.20;;;;;;;8.03;100.00;100017.44;4975598;28;20138;-71
2021/11/02 02:25:18;;;;;;;112.40;25.27;;;;;;;8.13;100.00;100014.41;4988792;28;20100;-70
2021/11/02 02:28:10;;;;;;;85.45;23.75;;;;;;;8.66;100.00;100101.34;4988941;28;20031;-70
2021/11/02 02:30:47;;;;;;;129.35;23.95;;;;;;;8.63;100.00;100103.81;4988736;28;20517;-70
2021/11/02 02:33:14;;;;;;;135.57;23.95;;;;;;;8.66;100.00;100103.94;4982149;28;20073;-68
2021/11/02 02:35:40;;;;;;;115.88;24.67;;;;;;;8.71;100.00;100108.44;4976857;28;20152;-74
2021/11/02 02:38:08;;;;;;;120.45;24.92;;;;;;;8.48;100.00;100071.53;4980134;28;20038;-68
2021/11/02 02:40:35;;;;;;;155.15;24.80;;;;;;;8.69;100.00;100098.91;4978833;28;20035;-69
2021/11/02 02:43:01;;;;;;;48.05;21.23;;;;;;;8.51;100.00;100093.91;4954231;28;20054;-69
2021/11/02 02:45:28;;;;;;;50.60;23.00;;;;;;;8.17;100.00;100098.56;4984173;28;20393;-68
2021/11/02 02:47:54;;;;;;;62.53;25.35;;;;;;;7.81;100.00;100072.22;4980689;28;20038;-68
2021/11/02 02:50:21;;;;;;;103.13;28.23;;;;;;;8.08;100.00;100100.78;5018488;28;20414;-71
2021/11/02 02:52:48;;;;;;;87.70;27.08;;;;;;;8.15;100.00;100091.59;5058334;28;20016;-69
2021/11/02 02:55:16;;;;;;;111.43;27.58;;;;;;;8.39;100.00;100109.72;5038761;28;20076;-68
2021/11/02 02:57:44;;;;;;;102.07;27.02;;;;;;;8.48;100.00;100104.09;5067196;28;20048;-69
2021/11/02 03:00:11;;;;;;;66.38;23.95;;;;;;;8.56;100.00;100103.59;5074429;28;20027;-68
2021/11/02 03:02:37;;;;;;;50.78;21.98;;;;;;;8.43;100.00;100101.31;5073603;28;20029;-68
2021/11/02 03:05:07;;;;;;;61.10;22.52;;;;;;;8.19;100.00;100104.66;5073931;28;20016;-69
2021/11/02 03:07:33;;;;;;;;;;;;;;;8.15;100.00;100097.66;5074625;28;20051;-68
2021/11/02 03:09:58;;;;;;;71.72;23.55;;;;;;;7.75;100.00;100022.34;5073912;28;20550;-68
2021/11/02 03:12:30;;;;;;;53.17;23.00;;;;;;;8.23;100.00;100096.25;5073850;28;20075;-69
2021/11/02 03:18:04;;;;;;;67.25;25.33;;;;;;;8.01;100.00;100045.66;5073772;28;20094;-68
2021/11/02 05:48:09;;;;;;;55.30;21.95;;;;;;;7.66;100.00;100016.81;5056528;28;20043;-68
2021/11/02 06:01:48;;;;;;;56.05;23.00;;;;;;;7.73;100.00;100012.81;4950367;28;20050;-69
2021/11/02 06:07:02;;;;;;;63.58;25.05;;;;;;;7.65;100.00;99988.50;4950384;28;20043;-67
2021/11/02 06:09:47;;;;;;;60.80;25.30;;;;;;;7.63;100.00;99990.13;4954518;28;20042;-70
2021/11/02 06:29:14;;;;;;;62.28;27.95;;;;;;;8.16;100.00;99975.97;4954232;28;20510;-71
2021/11/02 06:31:42;;;;;;;60.85;26.35;;;;;;;8.46;100.00;100019.16;4953604;28;20047;-70
2021/11/02 06:34:17;;;;;;;53.63;26.90;;;;;;;8.48;100.00;100024.34;5000633;28;20042;-69
2021/11/02 06:58:39;;;;;;;57.17;29.80;;;;;;;8.90;100.00;100011.34;5011509;28;20493;-70
2021/11/02 07:18:06;;;;;;;53.20;30.40;;;;;;;9.18;100.00;99992.59;5001160;28;20045;-71
2021/11/02 08:47:23;;;;;;;37.70;27.85;;;;;;;11.53;100.00;99907.41;5010712;28;20040;-70
2021/11/02 08:49:49;;;;;;;45.00;32.35;;;;;;;11.67;100.00;99903.44;5010374;28;20507;-70
2021/11/02 08:52:18;;;;;;;84.65;56.25;;;;;;;11.59;100.00;99897.19;5010255;28;20033;-70
2021/11/02 08:54:46;;;;;;;45.40;31.47;;;;;;;11.53;100.00;99884.16;5010100;28;20483;-71
2021/11/02 08:57:12;;;;;;;50.13;33.42;;;;;;;11.64;100.00;99898.19;5010029;28;20100;-71
2021/11/02 08:59:38;;;;;;;45.95;32.58;;;;;;;11.61;100.00;99880.91;5010235;28;20536;-70
2021/11/02 09:02:11;;;;;;;44.58;31.45;;;;;;;11.47;100.00;99831.44;5010163;28;20112;-70
2021/11/02 09:05:02;;;;;;;58.13;38.55;;;;;;;11.81;100.00;99878.78;5049082;28;20041;-70
2021/11/02 09:07:29;;;;;;;58.95;38.65;;;;;;;11.87;100.00;99872.84;5009940;28;20052;-69
2021/11/02 09:09:56;;;;;;;62.00;42.15;;;;;;;11.81;100.00;99855.50;5010042;28;20030;-70
2021/11/02 09:12:29;;;;;;;48.72;32.88;;;;;;;12.00;100.00;99873.16;5009417;28;20077;-69
2021/11/02 09:14:56;;;;;;;58.83;37.17;;;;;;;12.04;100.00;99882.75;5010028;28;20420;-68
2021/11/02 09:17:22;;;;;;;50.65;34.33;;;;;;;12.14;100.00;99864.84;5007531;28;20124;-68
2021/11/02 09:19:48;;;;;;;60.85;38.22;;;;;;;12.10;100.00;99852.69;4987771;28;20050;-68
2021/11/02 09:22:16;;;;;;;53.70;37.38;;;;;;;12.12;100.00;99866.53;5009716;28;20076;-70
2021/11/02 09:24:42;;;;;;;46.67;31.50;;;;;;;12.20;100.00;99848.56;5009825;28;20495;-71
2021/11/02 09:27:12;;;;;;;52.20;37.60;;;;;;;11.85;100.00;99802.13;5009461;28;20510;-71
2021/11/02 09:29:38;;;;;;;44.78;31.17;;;;;;;12.16;100.00;99862.28;5010282;28;20088;-71
2021/11/02 09:32:07;;;;;;;44.42;30.08;;;;;;;11.92;100.00;99805.69;4993146;28;20400;-69
2021/11/02 09:34:33;;;;;;;40.38;29.10;;;;;;;11.80;100.00;99777.84;5009763;28;20107;-71
2021/11/02 09:37:13;;;;;;;39.65;28.38;;;;;;;12.34;100.00;99848.84;5006848;28;20420;-70
2021/11/02 09:39:41;;;;;;;39.10;32.47;;;;;;;12.36;100.00;99849.75;4991505;28;20045;-71
2021/11/02 09:42:36;;;;;;;39.83;30.27;;;;;;;12.51;100.00;99848.28;4989946;28;20044;-71
2021/11/02 09:45:38;;;;;;;42.33;29.77;;;;;;;12.59;100.00;99849.31;5021260;28;20048;-70
2021/11/02 09:48:20;;;;;;;34.15;25.13;;;;;;;12.16;100.00;99761.34;5031881;28;20657;-70
2021/11/02 09:51:22;;;;;;;40.78;27.00;;;;;;;12.66;100.00;99839.94;5031105;28;20521;-70
2021/11/02 09:54:27;;;;;;;31.48;24.75;;;;;;;12.73;100.00;99834.88;5011948;28;20037;-70
2021/11/02 09:57:30;;;;;;;31.35;25.30;;;;;;;12.80;100.00;99835.88;5009177;28;20050;-70
2021/11/02 10:53:57;;;;;;;43.10;31.10;;;;;;;12.50;100.00;99818.06;5048204;28;20094;-68
2021/11/02 10:56:41;;;;;;;43.92;32.75;;;;;;;12.52;100.00;99806.03;5049914;28;20463;-67
2021/11/02 10:59:14;;;;;;;42.10;31.85;;;;;;;12.51;100.00;99810.34;5061603;28;20497;-72
2021/11/02 11:01:43;;;;;;;42.03;31.42;;;;;;;12.41;100.00;99783.41;5063734;28;20494;-68
2021/11/02 11:04:12;;;;;;;40.83;30.13;;;;;;;12.51;100.00;99804.28;5069873;28;20021;-70
2021/11/02 11:06:38;;;;;;;42.65;30.35;;;;;;;12.24;100.00;99777.03;5062010;28;20504;-69
2021/11/02 11:09:07;;;;;;;42.95;29.83;;;;;;;12.27;100.00;99777.97;5066255;28;20032;-70
2021/11/02 11:11:39;;;;;;;47.25;33.88;;;;;;;12.49;100.00;99795.63;5072412;28;20024;-68
2021/11/02 11:14:10;;;;;;;40.72;30.30;;;;;;;12.57;100.00;99799.22;5071846;28;20029;-68
2021/11/02 11:16:41;;;;;;;41.83;31.15;;;;;;;12.59;100.00;99792.34;5071947;28;20028;-67
2021/11/02 11:19:14;;;;;;;43.42;32.20;;;;;;;12.51;100.00;99780.97;5072552;28;20032;-67
2021/11/02 11:21:43;;;;;;;46.30;33.58;;;;;;;12.72;100.00;99804.69;5072785;28;20478;-69
2021/11/02 11:24:23;;;;;;;47.45;33.90;;;;;;;12.76;100.00;99808.16;5072444;28;20028;-68
2021/11/02 11:26:52;;;;;;;46.47;32.75;;;;;;;12.71;100.00;99808.09;5059893;28;20402;-70
2021/11/02 11:29:28;;;;;;;43.60;32.20;;;;;;;12.77;100.00;99828.94;5070057;28;20082;-69
2021/11/02 11:31:57;;;;;;;46.25;33.35;;;;;;;12.20;100.00;99767.47;5045803;28;20016;-67
2021/11/02 11:34:31;;;;;;;47.58;35.42;;;;;;;11.59;100.00;99761.06;5063122;28;20041;-69
2021/11/02 11:36:59;;;;;;;47.70;35.03;;;;;;;11.96;100.00;99830.81;5062784;28;20051;-70
2021/11/02 11:39:28;;;;;;;50.00;34.72;;;;;;;11.76;100.00;99836.41;5063017;28;20028;-68
2021/11/02 11:41:56;;;;;;;46.45;35.13;;;;;;;11.79;100.00;99843.38;5061547;28;20025;-70
2021/11/02 11:44:22;;;;;;;47.10;34.70;;;;;;;11.71;100.00;99838.00;5064170;28;20111;-68
2021/11/02 11:47:09;;;;;;;145.35;92.68;;;;;;;11.54;100.00;99834.16;5059680;28;20372;-69
2021/11/02 11:49:55;;;;;;;44.05;34.05;;;;;;;11.33;100.00;99825.09;5058934;28;20040;-69
2021/11/02 11:52:25;;;;;;;46.10;32.33;;;;;;;11.23;100.00;99808.50;5007353;28;20440;-69
2021/11/02 11:54:53;;;;;;;45.67;32.53;;;;;;;11.33;100.00;99820.78;5010925;28;20096;-68
2021/11/02 11:57:35;;;;;;;44.50;32.28;;;;;;;11.34;100.00;99811.34;5010664;28;20069;-68
2021/11/02 12:00:08;;;;;;;46.53;32.90;;;;;;;11.30;100.00;99789.72;5010763;28;20058;-68
2021/11/02 12:02:48;;;;;;;50.00;36.33;;;;;;;11.10;100.00;99744.47;5010859;28;20042;-68
2021/11/02 12:05:18;;;;;;;44.80;32.50;;;;;;;11.47;100.00;99779.75;5011105;28;20038;-70
2021/11/02 12:07:54;;;;;;;46.03;32.63;;;;;;;11.61;100.00;99777.50;5010837;28;20109;-68
2021/11/02 12:10:25;;;;;;;41.28;31.15;;;;;;;11.71;100.00;99765.59;5010877;28;20029;-67
2021/11/02 12:12:54;;;;;;;46.30;34.15;;;;;;;11.20;100.00;99679.22;5010415;28;20044;-69
2021/11/02 12:15:20;;;;;;;44.00;31.55;;;;;;;11.21;100.00;99683.56;5010637;28;20073;-71
2021/11/02 12:17:50;;;;;;;73.43;50.00;;;;;;;11.61;100.00;99761.97;5009500;28;20045;-72
2021/11/02 12:20:17;;;;;;;54.08;39.65;;;;;;;11.56;100.00;99753.22;5000605;28;20497;-68
2021/11/02 12:22:54;;;;;;;51.70;37.80;;;;;;;11.57;100.00;99751.53;5010801;28;20043;-69
2021/11/02 12:25:22;;;;;;;43.58;33.03;;;;;;;11.39;100.00;99757.16;5046562;28;20148;-68
2021/11/02 12:27:49;;;;;;;44.78;32.65;;;;;;;11.31;100.00;99737.22;5038582;28;20036;-69
2021/11/02 12:30:18;;;;;;;43.78;31.98;;;;;;;11.39;100.00;99745.13;5071549;28;20041;-68
2021/11/02 12:32:46;;;;;;;43.33;30.83;;;;;;;11.32;100.00;99745.81;5063273;28;20100;-67
2021/11/02 12:35:18;;;;;;;41.33;31.40;;;;;;;11.04;100.00;99718.50;5060580;28;20021;-67
2021/11/02 12:37:57;;;;;;;45.28;33.40;;;;;;;11.06;100.00;99725.44;5004979;28;20434;-71
2021/11/02 12:40:29;;;;;;;47.85;33.17;;;;;;;11.10;100.00;99749.63;5071800;28;20040;-65
2021/11/02 12:42:57;;;;;;;50.22;34.22;;;;;;;10.54;100.00;99765.47;5059249;28;20082;-66
2021/11/02 12:45:25;;;;;;;45.47;33.83;;;;;;;10.56;100.00;99776.72;5070413;28;20032;-69
2021/11/02 12:47:54;;;;;;;43.70;31.77;;;;;;;10.67;100.00;99771.00;5068482;28;20486;-72
2021/11/02 12:50:21;;;;;;;43.33;31.47;;;;;;;10.28;100.00;99703.72;5066654;28;20530;-66
2021/11/02 12:52:47;;;;;;;44.22;32.88;;;;;;;10.88;100.00;99784.41;5051453;28;20034;-65
2021/11/02 12:55:24;;;;;;;44.33;32.65;;;;;;;10.91;100.00;99776.75;5065677;28;20078;-66
2021/11/02 12:58:18;;;;;;;44.30;29.60;;;;;;;10.64;100.00;99780.38;5068245;28;20032;-69
2021/11/02 13:00:51;;;;;;;46.45;33.22;;;;;;;10.70;100.00;99779.66;5066384;28;20044;-67
2021/11/02 13:03:20;;;;;;;42.70;32.65;;;;;;;10.72;100.00;99771.13;5066668;28;20402;-67
2021/11/02 13:06:02;;;;;;;45.33;33.00;;;;;;;10.40;100.00;99698.91;5028163;28;20043;-67
2021/11/02 13:08:35;;;;;;;46.78;32.60;;;;;;;10.91;100.00;99764.69;5067111;28;20029;-70
2021/11/02 13:11:16;;;;;;;45.95;31.77;;;;;;;11.02;100.00;99762.38;5063237;28;20100;-66
2021/11/02 13:14:04;;;;;;;53.92;39.67;;;;;;;11.06;100.00;99763.31;5066161;28;20486;-66
2021/11/02 13:16:58;;;;;;;44.50;31.52;;;;;;;11.05;100.00;99754.69;5019890;28;20041;-66
2021/11/02 13:19:32;;;;;;;40.33;30.48;;;;;;;11.02;100.00;99739.13;5044085;28;20074;-67
2021/11/02 13:22:12;;;;;;;48.40;35.53;;;;;;;11.02;100.00;99733.09;5066566;28;20143;-66
2021/11/02 13:24:38;;;;;;;46.97;32.40;;;;;;;10.71;100.00;99678.16;5062849;28;20494;-66
2021/11/02 13:27:08;;;;;;;42.38;30.92;;;;;;;11.08;100.00;99761.63;5065974;28;20032;-67
2021/11/02 13:29:34;;;;;;;44.22;34.15;;;;;;;10.52;100.00;99683.72;5058464;28;20032;-67
2021/11/02 13:32:05;;;;;;;49.47;32.97;;;;;;;11.02;100.00;99762.38;5052765;28;20036;-67
2021/11/02 13:34:30;;;;;;;43.90;32.45;;;;;;;11.07;100.00;99771.09;5045864;28;20024;-65
2021/11/02 13:37:14;;;;;;;42.28;32.22;;;;;;;11.17;100.00;99756.69;5053776;28;20028;-65
2021/11/02 13:39:56;;;;;;;46.45;34.78;;;;;;;10.81;100.00;99693.00;5052508;28;20048;-69
2021/11/02 13:42:46;;;;;;;48.95;34.65;;;;;;;11.20;100.00;99737.78;5060357;28;20864;-66
2021/11/02 13:45:14;;;;;;;54.83;40.92;;;;;;;11.13;100.00;99719.56;5068796;28;20096;-67
2021/11/02 13:47:41;;;;;;;46.00;34.35;;;;;;;11.31;100.00;99744.06;5019822;28;20032;-67
2021/11/02 13:50:07;;;;;;;42.22;32.08;;;;;;;11.30;100.00;99744.91;5068276;28;20107;-67
2021/11/02 13:52:34;;;;;;;48.80;35.53;;;;;;;11.30;100.00;99721.66;5069503;28;20467;-70
2021/11/02 13:55:01;;;;;;;44.30;33.35;;;;;;;11.45;100.00;99741.78;5068513;28;20064;-67
2021/11/02 13:57:26;;;;;;;42.50;32.28;;;;;;;11.50;100.00;99740.16;5069726;28;20036;-67
2021/11/02 13:59:52;;;;;;;40.67;32.85;;;;;;;11.52;100.00;99730.75;5060924;28;20044;-67
2021/11/02 14:02:18;;;;;;;45.83;31.63;;;;;;;11.60;100.00;99720.56;5064189;28;20024;-67
2021/11/02 14:04:46;;;;;;;38.53;29.75;;;;;;;11.69;100.00;99710.41;5068803;28;20115;-69
2021/11/02 14:07:15;;;;;;;40.35;31.80;;;;;;;11.75;100.00;99725.16;5050185;28;20044;-68
2021/11/02 14:10:06;;;;;;;41.33;30.88;;;;;;;11.73;100.00;99730.31;5068121;28;20024;-68
2021/11/02 14:12:40;;;;;;;36.72;29.25;;;;;;;11.65;100.00;99737.03;5021315;28;20048;-67
2021/11/02 14:15:11;;;;;;;40.42;30.77;;;;;;;11.64;100.00;99725.84;5026497;28;20069;-66
2021/11/02 14:17:45;;;;;;;54.90;41.25;;;;;;;11.70;100.00;99731.97;5023830;28;20064;-67
2021/11/02 14:20:13;;;;;;;49.33;36.63;;;;;;;11.70;100.00;99731.97;5026541;28;20108;-71
2021/11/02 14:22:50;;;;;;;52.92;38.17;;;;;;;11.71;100.00;99723.38;4991561;28;20038;-72
2021/11/02 14:25:19;;;;;;;41.40;31.60;;;;;;;11.65;100.00;99721.53;5026852;28;20095;-67
2021/11/02 14:27:47;;;;;;;43.13;32.47;;;;;;;11.57;100.00;99710.16;5026376;28;20037;-67
2021/11/02 14:30:30;;;;;;;44.40;33.30;;;;;;;11.70;100.00;99731.97;5007580;28;20066;-67
2021/11/02 14:32:57;;;;;;;46.08;34.30;;;;;;;11.56;100.00;99719.63;5027378;28;20106;-67
2021/11/02 14:35:45;;;;;;;47.15;35.08;;;;;;;11.61;100.00;99732.66;5027635;28;20519;-66
2021/11/02 14:38:16;;;;;;;47.30;35.60;;;;;;;11.50;100.00;99729.81;5026733;28;20049;-67
2021/11/02 14:40:49;;;;;;;48.15;36.08;;;;;;;11.33;100.00;99707.09;5026547;28;20038;-67
2021/11/02 14:43:17;;;;;;;48.30;35.03;;;;;;;11.50;100.00;99735.00;5035474;28;20040;-67
2021/11/02 14:46:17;;;;;;;44.60;35.30;;;;;;;11.42;100.00;99739.16;5036489;28;20140;-66
2021/11/02 14:48:42;;;;;;;;;;;;;;;11.40;100.00;99728.78;5010640;28;20048;-68
2021/11/02 14:51:17;;;;;;;42.95;32.75;;;;;;;11.29;100.00;99741.47;4992699;28;19929;-66
2021/11/02 14:53:44;;;;;;;45.28;33.92;;;;;;;11.05;100.00;99681.50;5008862;28;20050;-68
2021/11/02 14:56:12;;;;;;;45.85;35.65;;;;;;;11.15;100.00;99735.09;5010448;28;20041;-72
2021/11/02 14:58:43;;;;;;;51.13;37.58;;;;;;;11.20;100.00;99724.88;5009190;28;20141;-66
2021/11/02 15:01:22;;;;;;;48.15;36.45;;;;;;;11.15;100.00;99723.06;5010491;28;20040;-68
2021/11/02 15:04:06;;;;;;;48.80;36.15;;;;;;;11.18;100.00;99719.69;5008941;28;20052;-71
2021/11/02 15:06:38;;;;;;;46.65;34.92;;;;;;;10.82;100.00;99661.19;5010031;28;20038;-67
2021/11/02 15:09:15;;;;;;;47.67;36.22;;;;;;;11.12;100.00;99716.97;5009930;28;20049;-67
2021/11/02 15:11:51;;;;;;;49.30;35.58;;;;;;;11.22;100.00;99737.00;5010475;28;20021;-67
2021/11/02 15:14:17;;;;;;;45.58;33.78;;;;;;;11.21;100.00;99742.13;5001286;28;20038;-68
2021/11/02 15:16:53;;;;;;;47.83;36.17;;;;;;;11.21;100.00;99729.22;5007667;28;20492;-70
2021/11/02 15:19:22;;;;;;;46.53;33.88;;;;;;;10.78;100.00;99638.69;5008477;28;20052;-68
2021/11/02 15:21:59;;;;;;;44.88;33.58;;;;;;;10.82;100.00;99649.16;4994410;28;20494;-67
2021/11/02 15:24:31;;;;;;;49.03;36.63;;;;;;;11.33;100.00;99726.91;5013550;28;20030;-69
2021/11/02 15:27:19;;;;;;;48.20;37.47;;;;;;;11.31;100.00;99713.06;5059125;28;20059;-69
2021/11/02 15:29:48;;;;;;;46.25;33.72;;;;;;;11.45;100.00;99731.44;4972708;28;20134;-68
2021/11/02 15:32:34;;;;;;;41.55;31.98;;;;;;;11.51;100.00;99734.16;4972851;28;20039;-66
2021/11/02 15:35:03;;;;;;;37.90;30.33;;;;;;;11.45;100.00;99747.84;4954596;28;20552;-68
2021/11/02 15:37:34;;;;;;;39.42;27.80;;;;;;;11.33;100.00;99738.09;4940365;28;20421;-68
2021/11/02 15:40:10;;;;;;;38.17;28.15;;;;;;;11.37;100.00;99746.78;4972612;28;20053;-67
2021/11/02 15:43:02;;;;;;;32.97;25.50;;;;;;;11.39;100.00;99746.81;4956724;28;20093;-68
2021/11/02 15:45:32;;;;;;;35.22;26.55;;;;;;;11.38;100.00;99751.13;4926070;29;20107;-67
2021/11/02 15:48:12;;;;;;;43.38;32.15;;;;;;;11.29;100.00;99762.13;4934116;29;20473;-68
2021/11/02 15:50:43;;;;;;;39.58;29.00;;;;;;;11.26;100.00;99764.63;4933242;29;20078;-68
2021/11/02 15:53:09;;;;;;;50.08;36.85;;;;;;;10.70;100.00;99656.59;4933826;29;20047;-69
2021/11/02 15:55:36;;;;;;;51.72;38.05;;;;;;;10.79;100.00;99671.44;4933897;29;20056;-68
2021/11/02 15:58:06;;;;;;;47.53;34.92;;;;;;;10.80;100.00;99668.03;4933218;29;20127;-68
2021/11/02 16:00:44;;;;;;;53.13;37.03;;;;;;;11.30;100.00;99756.13;4915280;29;20052;-68
2021/11/02 16:03:14;;;;;;;57.60;40.92;;;;;;;11.26;100.00;99774.97;4915035;29;20048;-67
2021/11/02 16:05:42;;;;;;;;;;;;;;;11.21;100.00;99773.13;4918826;28;20118;-69
2021/11/02 16:08:18;;;;;;;54.50;37.25;;;;;;;11.16;100.00;99776.50;4991621;28;19924;-68
2021/11/02 16:10:46;;;;;;;51.45;37.83;;;;;;;11.11;100.00;99756.53;4991780;28;20034;-69
2021/11/02 16:13:12;;;;;;;43.67;32.53;;;;;;;11.17;100.00;99767.88;4991805;28;20147;-68
2021/11/02 16:15:40;;;;;;;38.28;29.92;;;;;;;11.27;100.00;99757.78;4991784;28;20610;-68
2021/11/02 16:18:27;;;;;;;36.67;27.65;;;;;;;11.32;100.00;99756.16;4990284;28;20401;-68
2021/11/02 16:20:56;;;;;;;37.92;28.58;;;;;;;11.18;100.00;99748.09;4989307;28;20045;-69
2021/11/02 16:23:24;;;;;;;36.17;27.47;;;;;;;11.41;100.00;99771.84;5060603;28;20549;-68
2021/11/02 16:25:55;;;;;;;37.15;29.23;;;;;;;11.40;100.00;99767.56;5062766;28;20013;-68
2021/11/02 16:28:24;;;;;;;35.40;27.40;;;;;;;11.12;100.00;99735.91;5045628;28;20082;-67
2021/11/02 16:30:53;;;;;;;35.92;27.85;;;;;;;11.02;100.00;99705.53;5062633;28;20017;-73
2021/11/02 16:33:33;;;;;;;38.30;28.58;;;;;;;11.56;100.00;99779.06;5061107;28;20075;-70
2021/11/02 16:36:28;;;;;;;39.55;29.08;;;;;;;11.51;100.00;99762.59;5061249;28;20025;-68
2021/11/02 16:38:56;;;;;;;35.63;27.48;;;;;;;11.59;100.00;99783.44;5062818;28;20028;-68
2021/11/02 16:41:28;;;;;;;36.72;28.45;;;;;;;11.15;100.00;99694.66;5060969;28;20102;-68
2021/11/02 16:44:02;;;;;;;35.67;27.98;;;;;;;11.60;100.00;99780.03;5061711;28;20103;-69
2021/11/02 16:46:29;;;;;;;36.80;28.98;;;;;;;11.64;100.00;99785.31;5062079;28;20061;-73
2021/11/02 16:49:04;;;;;;;39.40;28.73;;;;;;;11.19;100.00;99720.53;5063524;28;20399;-66
2021/11/02 16:51:45;;;;;;;39.17;29.27;;;;;;;11.61;100.00;99793.00;5066637;28;20020;-67
2021/11/02 16:54:13;;;;;;;37.38;29.08;;;;;;;11.59;100.00;99799.84;5057786;28;20046;-68
2021/11/02 16:57:16;;;;;;;36.10;28.00;;;;;;;11.63;100.00;99798.19;5052614;28;20108;-69
2021/11/02 17:00:01;;;;;;;39.45;28.98;;;;;;;11.26;100.00;99737.94;5040010;28;20073;-68
2021/11/02 17:02:27;;;;;;;36.67;28.98;;;;;;;11.68;100.00;99795.72;5032205;28;20033;-68
2021/11/02 17:05:23;;;;;;;36.42;28.10;;;;;;;11.74;100.00;99799.31;5032462;28;20740;-68
2021/11/02 17:07:50;;;;;;;38.65;28.52;;;;;;;11.78;100.00;99792.47;5032526;28;20025;-72
2021/11/02 17:10:22;;;;;;;39.45;28.80;;;;;;;11.90;100.00;99799.59;5031875;28;20517;-68
2021/11/02 17:12:51;;;;;;;38.13;29.17;;;;;;;11.86;100.00;99815.91;5032456;28;20030;-68
2021/11/02 17:15:23;;;;;;;35.70;27.33;;;;;;;11.78;100.00;99811.44;5032351;28;20029;-69
2021/11/02 17:17:51;;;;;;;37.17;28.92;;;;;;;11.75;100.00;99819.16;5037058;28;20033;-69
2021/11/02 17:20:19;;;;;;;33.42;26.67;;;;;;;11.77;100.00;99816.59;5051832;28;20036;-69
2021/11/02 17:22:46;;;;;;;36.95;28.45;;;;;;;11.73;100.00;99815.66;5051851;28;20114;-69
2021/11/02 17:25:12;;;;;;;37.70;29.23;;;;;;;11.72;100.00;99824.25;5033480;28;20036;-70
2021/11/02 17:27:38;;;;;;;36.05;26.95;;;;;;;11.79;100.00;99825.28;5023546;28;20125;-68
2021/11/02 17:30:04;;;;;;;33.88;26.63;;;;;;;11.84;100.00;99820.16;5051347;28;20107;-70
2021/11/02 17:32:30;;;;;;;34.58;26.10;;;;;;;11.86;100.00;99815.91;5016365;28;20032;-69